createdAt,value
2023-03-06T00:01:00.736Z,2.63
2023-03-06T00:03:28.239Z,2.70
2023-03-06T00:05:57.302Z,2.65
2023-03-06T00:08:25.007Z,2.78
2023-03-06T00:10:52.148Z,2.58
2023-03-06T00:13:19.147Z,2.45
2023-03-06T00:15:46.621Z,2.60
2023-03-06T00:18:13.810Z,3.20
2023-03-06T00:20:42.483Z,3.08
2023-03-06T00:23:10.401Z,3.72
2023-03-06T00:25:38.753Z,3.72
2023-03-06T00:28:06.378Z,3.65
2023-03-06T00:30:33.767Z,3.30
2023-03-06T00:33:00.501Z,3.45
2023-03-06T00:35:27.179Z,3.63
2023-03-06T00:37:53.913Z,3.55
2023-03-06T00:40:21.711Z,3.40
2023-03-06T00:42:48.677Z,4.00
2023-03-06T00:45:15.537Z,4.40
2023-03-06T00:47:42.444Z,3.50
2023-03-06T00:50:10.319Z,4.47
2023-03-06T00:52:37.081Z,4.55
2023-03-06T00:55:04.857Z,4.05
2023-03-06T00:57:31.585Z,4.50
2023-03-06T00:59:58.630Z,4.65
2023-03-06T01:02:25.856Z,4.63
2023-03-06T01:04:54.572Z,4.78
2023-03-06T01:07:21.451Z,4.45
2023-03-06T01:09:48.242Z,5.00
2023-03-06T01:12:15.562Z,5.03
2023-03-06T01:14:42.290Z,5.38
2023-03-06T01:17:09.950Z,4.95
2023-03-06T01:19:36.938Z,5.75
2023-03-06T01:22:04.259Z,4.97
2023-03-06T01:24:31.598Z,5.28
2023-03-06T01:26:58.287Z,5.93
2023-03-06T01:29:26.294Z,5.65
2023-03-06T01:31:53.274Z,5.88
2023-03-06T01:34:20.182Z,6.55
2023-03-06T01:36:46.915Z,5.97
2023-03-06T01:39:13.722Z,6.43
2023-03-06T01:41:41.356Z,6.10
2023-03-06T01:44:13.479Z,6.32
2023-03-06T01:46:44.834Z,6.35
2023-03-06T01:49:14.796Z,6.80
2023-03-06T01:52:03.396Z,6.75
2023-03-06T01:54:35.591Z,6.82
2023-03-06T01:57:13.637Z,7.40
2023-03-06T01:59:42.595Z,7.18
2023-03-06T02:02:12.324Z,7.07
2023-03-06T02:04:41.200Z,7.22
2023-03-06T02:07:09.098Z,7.57
2023-03-06T02:09:36.947Z,8.45
2023-03-06T02:12:09.970Z,7.78
2023-03-06T02:14:37.333Z,9.68
2023-03-06T02:17:05.465Z,9.60
2023-03-06T02:19:47.781Z,8.82
2023-03-06T02:22:14.470Z,9.70
2023-03-06T02:24:58.240Z,9.13
2023-03-06T02:27:25.978Z,10.45
2023-03-06T02:29:55.262Z,10.25
2023-03-06T02:32:22.340Z,9.52
2023-03-06T02:34:56.597Z,9.57
2023-03-06T02:37:25.400Z,10.30
2023-03-06T02:39:59.485Z,9.82
2023-03-06T02:44:57.101Z,9.18
2023-03-06T02:47:23.910Z,10.75
2023-03-06T02:49:50.752Z,8.90
2023-03-06T02:52:18.363Z,10.15
2023-03-06T02:54:45.136Z,9.98
2023-03-06T02:57:12.058Z,10.45
2023-03-06T02:59:39.005Z,10.35
2023-03-06T03:02:06.536Z,10.93
2023-03-06T03:04:34.396Z,11.27
2023-03-06T03:07:01.841Z,10.90
2023-03-06T03:09:28.796Z,11.55
2023-03-06T03:11:55.498Z,11.32
2023-03-06T03:14:27.348Z,11.68
2023-03-06T03:16:54.174Z,11.60
2023-03-06T03:19:21.142Z,12.15
2023-03-06T03:21:48.136Z,11.23
2023-03-06T03:24:16.569Z,11.23
2023-03-06T03:26:43.405Z,11.02
2023-03-06T03:29:14.797Z,10.07
2023-03-06T03:31:41.647Z,10.07
2023-03-06T03:34:08.745Z,11.70
2023-03-06T03:36:38.694Z,10.98
2023-03-06T03:39:07.800Z,10.75
2023-03-06T03:41:35.352Z,10.15
2023-03-06T03:44:05.271Z,9.63
2023-03-06T03:46:32.374Z,9.65
2023-03-06T03:49:00.977Z,10.18
2023-03-06T03:51:28.106Z,10.52
2023-03-06T03:53:58.145Z,9.73
2023-03-06T03:56:27.770Z,9.20
2023-03-06T03:59:02.917Z,8.68
2023-03-06T04:01:36.464Z,8.95
2023-03-06T04:04:04.601Z,8.82
2023-03-06T04:06:31.367Z,9.63
2023-03-06T04:08:58.782Z,9.30
2023-03-06T04:11:25.762Z,8.68
2023-03-06T04:13:53.574Z,7.55
2023-03-06T04:16:20.461Z,9.98
2023-03-06T04:18:48.252Z,9.65
2023-03-06T04:21:16.565Z,10.82
2023-03-06T04:23:43.704Z,10.23
2023-03-06T04:26:10.543Z,9.65
2023-03-06T04:28:38.011Z,11.40
2023-03-06T04:31:05.521Z,10.73
2023-03-06T04:33:32.444Z,10.25
2023-03-06T04:35:59.489Z,11.27
2023-03-06T04:38:29.989Z,10.50
2023-03-06T04:40:56.934Z,11.00
2023-03-06T04:43:23.828Z,10.85
2023-03-06T04:45:50.637Z,12.27
2023-03-06T04:48:18.828Z,10.75
2023-03-06T04:50:45.949Z,11.00
2023-03-06T04:53:14.427Z,10.60
2023-03-06T04:55:41.209Z,10.68
2023-03-06T04:58:07.893Z,10.65
2023-03-06T05:00:34.836Z,9.15
2023-03-06T05:03:02.010Z,11.27
2023-03-06T05:05:29.048Z,11.43
2023-03-06T05:07:56.284Z,11.40
2023-03-06T05:10:23.748Z,10.57
2023-03-06T05:12:50.770Z,12.18
2023-03-06T05:15:17.644Z,9.82
2023-03-06T05:17:44.502Z,11.07
2023-03-06T05:20:12.278Z,10.70
2023-03-06T05:22:39.111Z,9.93
2023-03-06T05:25:06.474Z,10.20
2023-03-06T05:27:33.966Z,9.93
2023-03-06T05:30:00.852Z,11.38
2023-03-06T05:32:27.895Z,11.52
2023-03-06T05:34:54.757Z,10.85
2023-03-06T05:37:23.249Z,10.57
2023-03-06T05:39:51.032Z,8.45
2023-03-06T05:42:18.553Z,8.00
2023-03-06T05:44:45.527Z,8.02
2023-03-06T05:47:12.716Z,7.32
2023-03-06T05:49:39.532Z,6.88
2023-03-06T05:52:08.061Z,7.00
2023-03-06T05:54:36.450Z,5.97
2023-03-06T05:57:05.065Z,5.97
2023-03-06T05:59:32.965Z,6.78
2023-03-06T06:02:00.926Z,6.53
2023-03-06T06:04:28.093Z,5.65
2023-03-06T06:06:57.334Z,5.97
2023-03-06T06:09:24.923Z,5.38
2023-03-06T06:11:53.562Z,5.72
2023-03-06T06:14:20.424Z,5.75
2023-03-06T06:16:48.006Z,5.72
2023-03-06T06:19:18.664Z,6.28
2023-03-06T06:21:50.359Z,7.15
2023-03-06T06:24:22.341Z,6.40
2023-03-06T06:26:55.213Z,6.72
2023-03-06T06:29:23.234Z,6.90
2023-03-06T06:31:51.091Z,7.13
2023-03-06T06:34:18.235Z,8.13
2023-03-06T06:36:45.624Z,8.63
2023-03-06T06:39:15.969Z,9.63
2023-03-06T06:41:59.418Z,13.57
2023-03-06T06:44:29.721Z,7.43
2023-03-06T06:47:21.859Z,6.63
2023-03-06T06:49:43.576Z,6.72
2023-03-06T06:52:10.590Z,5.13
2023-03-06T06:54:37.357Z,4.43
2023-03-06T06:57:04.343Z,3.63
2023-03-06T06:59:31.050Z,4.13
2023-03-06T07:01:57.974Z,3.38
2023-03-06T07:04:24.694Z,3.03
2023-03-06T07:06:51.726Z,2.70
2023-03-06T07:09:18.636Z,2.78
2023-03-06T07:11:45.965Z,2.38
2023-03-06T07:14:12.635Z,2.33
2023-03-06T07:16:39.656Z,2.28
2023-03-06T07:19:07.327Z,1.70
2023-03-06T07:21:34.649Z,2.05
2023-03-06T07:24:01.516Z,1.60
2023-03-06T07:26:33.499Z,1.60
2023-03-06T07:29:01.420Z,1.80
2023-03-06T07:31:28.764Z,1.40
2023-03-06T07:33:55.828Z,1.55
2023-03-06T07:36:23.641Z,1.60
2023-03-06T07:38:50.468Z,1.63
2023-03-06T07:41:21.890Z,2.15
2023-03-06T07:43:49.929Z,2.25
2023-03-06T07:46:17.374Z,2.80
2023-03-06T07:48:44.634Z,2.40
2023-03-06T07:51:17.484Z,1.55
2023-03-06T07:56:12.312Z,1.20
2023-03-06T07:58:41.645Z,0.95
2023-03-06T08:04:44.891Z,1.30
2023-03-06T08:07:13.108Z,0.73
2023-03-06T08:09:39.915Z,0.90
2023-03-06T08:12:06.945Z,0.93
2023-03-06T08:14:35.228Z,0.90
2023-03-06T08:17:01.976Z,0.77
2023-03-06T08:19:28.775Z,0.80
2023-03-06T08:21:55.690Z,0.80
2023-03-06T08:24:22.677Z,0.82
2023-03-06T08:26:49.464Z,0.63
2023-03-06T08:29:16.398Z,0.70
2023-03-06T08:31:45.737Z,0.50
2023-03-06T08:34:21.503Z,0.70
2023-03-06T08:36:48.657Z,0.50
2023-03-06T08:39:15.471Z,0.60
2023-03-06T08:41:42.613Z,0.60
2023-03-06T08:44:10.260Z,0.70
2023-03-06T08:46:37.483Z,0.77
2023-03-06T08:49:04.637Z,0.50
2023-03-06T08:51:31.586Z,0.63
2023-03-06T08:53:58.769Z,0.60
2023-03-06T08:56:31.284Z,0.57
2023-03-06T08:58:59.988Z,0.60
2023-03-06T09:01:29.088Z,0.63
2023-03-06T09:03:57.962Z,0.65
2023-03-06T09:06:26.079Z,0.40
2023-03-06T09:08:54.008Z,0.57
2023-03-06T09:11:23.323Z,0.70
2023-03-06T09:13:50.533Z,0.70
2023-03-06T09:16:29.570Z,0.38
2023-03-06T09:18:57.986Z,1.02
2023-03-06T09:21:25.710Z,1.05
2023-03-06T09:23:52.696Z,0.60
2023-03-06T09:26:19.718Z,0.70
2023-03-06T09:28:46.623Z,0.55
2023-03-06T09:31:16.633Z,0.35
2023-03-06T09:33:44.109Z,0.40
2023-03-06T09:36:19.557Z,0.40
2023-03-06T09:38:48.285Z,0.50
2023-03-06T09:41:27.027Z,0.40
2023-03-06T09:44:06.253Z,0.47
2023-03-06T09:46:51.050Z,0.20
2023-03-06T09:49:45.835Z,0.47
2023-03-06T09:52:34.028Z,0.50
2023-03-06T09:55:12.513Z,0.55
2023-03-06T09:57:52.210Z,0.40
2023-03-06T10:00:33.821Z,0.40
2023-03-06T10:03:14.449Z,0.40
2023-03-06T10:06:16.392Z,0.40
2023-03-06T10:08:55.190Z,0.68
2023-03-06T10:11:33.050Z,0.40
2023-03-06T10:14:34.708Z,0.40
2023-03-06T10:17:02.285Z,0.50
2023-03-06T10:19:38.035Z,0.40
2023-03-06T10:22:14.058Z,0.38
2023-03-06T10:24:57.671Z,0.35
2023-03-06T10:27:36.650Z,2.90
2023-03-06T10:30:19.331Z,0.50
2023-03-06T10:32:51.409Z,0.25
2023-03-06T10:35:50.031Z,0.30
2023-03-06T10:38:39.016Z,0.68
2023-03-06T10:41:28.092Z,1.20
2023-03-06T10:44:00.761Z,0.28
2023-03-06T10:46:39.245Z,0.30
2023-03-06T10:49:23.419Z,0.40
2023-03-06T10:51:55.957Z,0.50
2023-03-06T10:54:22.654Z,0.50
2023-03-06T10:56:49.628Z,0.40
2023-03-06T10:59:19.686Z,0.20
2023-03-06T11:01:55.923Z,0.28
2023-03-06T11:04:32.501Z,0.30
2023-03-06T11:07:19.005Z,0.30
2023-03-06T11:10:03.976Z,0.38
2023-03-06T11:12:39.109Z,0.40
2023-03-06T11:15:22.438Z,0.52
2023-03-06T11:17:54.560Z,0.80
2023-03-06T11:20:52.512Z,1.02
2023-03-06T11:23:46.458Z,0.70
2023-03-06T11:26:16.055Z,0.57
2023-03-06T11:28:57.602Z,0.25
2023-03-06T11:31:32.382Z,0.63
2023-03-06T11:34:22.888Z,0.82
2023-03-06T11:37:06.404Z,0.50
2023-03-06T11:40:04.630Z,0.80
2023-03-06T11:42:58.146Z,0.70
2023-03-06T11:45:37.374Z,0.60
2023-03-06T11:48:19.853Z,0.63
2023-03-06T11:50:49.949Z,0.70
2023-03-06T11:53:22.937Z,0.55
2023-03-06T11:56:10.675Z,0.90
2023-03-06T11:59:01.468Z,0.70
2023-03-06T12:01:51.713Z,0.60
2023-03-06T12:04:36.820Z,0.70
2023-03-06T12:07:26.188Z,1.10
2023-03-06T12:10:27.894Z,1.10
2023-03-06T12:16:25.719Z,1.83
2023-03-06T12:19:22.602Z,2.67
2023-03-06T12:22:08.403Z,2.03
2023-03-06T12:25:11.369Z,1.40
2023-03-06T12:27:53.336Z,0.95
2023-03-06T12:30:47.565Z,1.25
2023-03-06T12:33:19.062Z,1.30
2023-03-06T12:35:54.440Z,1.02
2023-03-06T12:38:27.350Z,0.90
2023-03-06T12:41:12.097Z,1.10
2023-03-06T12:43:52.555Z,1.10
2023-03-06T12:46:22.991Z,1.13
2023-03-06T12:49:26.328Z,1.00
2023-03-06T12:51:59.452Z,1.00
2023-03-06T12:54:30.532Z,1.20
2023-03-06T12:57:09.451Z,1.40
2023-03-06T13:00:09.689Z,1.20
2023-03-06T13:03:20.109Z,1.30
2023-03-06T13:06:24.595Z,1.40
2023-03-06T13:09:06.530Z,1.55
2023-03-06T13:12:05.511Z,1.83
2023-03-06T13:14:42.408Z,2.20
2023-03-06T13:17:24.892Z,2.10
2023-03-06T13:20:14.772Z,3.10
2023-03-06T13:22:43.654Z,2.80
2023-03-06T13:25:19.633Z,3.42
2023-03-06T13:27:55.326Z,3.05
2023-03-06T13:30:39.188Z,2.90
2023-03-06T13:33:44.772Z,4.20
2023-03-06T13:36:30.873Z,3.75
2023-03-06T13:38:59.424Z,3.85
2023-03-06T13:41:34.338Z,4.53
2023-03-06T13:44:19.281Z,4.07
2023-03-06T13:46:57.827Z,4.45
2023-03-06T13:49:25.642Z,4.55
2023-03-06T13:51:52.457Z,5.47
2023-03-06T13:54:30.960Z,4.50
2023-03-06T13:57:09.983Z,5.45
2023-03-06T14:00:11.352Z,5.68
2023-03-06T14:03:00.713Z,6.03
2023-03-06T14:05:43.309Z,5.55
2023-03-06T14:08:20.725Z,6.45
2023-03-06T14:10:57.638Z,6.05
2023-03-06T14:13:35.204Z,5.38
2023-03-06T14:16:17.333Z,5.10
2023-03-06T14:18:47.887Z,6.03
2023-03-06T14:21:21.455Z,5.45
2023-03-06T14:24:04.626Z,5.63
2023-03-06T14:26:41.434Z,6.03
2023-03-06T14:29:21.052Z,5.07
2023-03-06T14:31:50.561Z,5.18
2023-03-06T14:34:23.502Z,4.97
2023-03-06T14:36:53.246Z,4.63
2023-03-06T14:39:42.834Z,4.75
2023-03-06T14:42:21.347Z,4.20
2023-03-06T14:44:49.801Z,3.85
2023-03-06T14:47:28.484Z,4.13
2023-03-06T14:50:21.919Z,3.95
2023-03-06T14:52:55.137Z,4.30
2023-03-06T14:55:24.769Z,4.50
2023-03-06T14:58:01.168Z,4.15
2023-03-06T15:00:36.474Z,3.97
2023-03-06T15:03:07.611Z,3.72
2023-03-06T15:05:35.370Z,2.72
2023-03-06T15:08:08.348Z,3.75
2023-03-06T15:10:36.570Z,3.67
2023-03-06T15:13:18.622Z,3.13
2023-03-06T15:16:05.493Z,3.00
2023-03-06T15:18:41.375Z,2.50
2023-03-06T15:21:09.788Z,2.78
2023-03-06T15:23:44.697Z,2.47
2023-03-06T15:26:36.951Z,2.85
2023-03-06T15:29:10.725Z,2.85
2023-03-06T15:31:42.776Z,3.10
2023-03-06T15:34:09.564Z,3.42
2023-03-06T15:36:42.462Z,3.25
2023-03-06T15:39:32.756Z,3.58
2023-03-06T15:42:20.780Z,4.28
2023-03-06T15:44:53.565Z,4.57
2023-03-06T15:47:21.633Z,4.05
2023-03-06T15:49:51.906Z,4.80
2023-03-06T15:52:20.246Z,4.65
2023-03-06T15:54:47.219Z,4.72
2023-03-06T15:57:24.659Z,4.88
2023-03-06T15:59:51.999Z,6.13
2023-03-06T16:02:23.556Z,6.22
2023-03-06T16:04:52.267Z,7.75
2023-03-06T16:07:20.648Z,7.30
2023-03-06T16:09:47.447Z,9.18
2023-03-06T16:12:17.413Z,8.95
2023-03-06T16:14:45.278Z,9.40
2023-03-06T16:17:12.574Z,8.82
2023-03-06T16:19:39.642Z,9.82
2023-03-06T16:22:06.583Z,11.98
2023-03-06T16:24:33.776Z,11.55
2023-03-06T16:27:01.580Z,11.45
2023-03-06T16:29:29.496Z,11.98
2023-03-06T16:31:58.112Z,11.13
2023-03-06T16:34:25.468Z,12.13
2023-03-06T16:36:52.250Z,12.60
2023-03-06T16:39:22.009Z,12.68
2023-03-06T16:41:49.438Z,13.30
2023-03-06T16:44:16.321Z,12.80
2023-03-06T16:46:47.594Z,12.05
2023-03-06T16:49:18.611Z,13.07
2023-03-06T16:51:45.427Z,11.85
2023-03-06T16:54:12.999Z,13.13
2023-03-06T16:56:39.953Z,14.02
2023-03-06T16:59:07.186Z,13.20
2023-03-06T17:01:34.263Z,13.63
2023-03-06T17:04:01.598Z,13.57
2023-03-06T17:06:29.023Z,14.25
2023-03-06T17:08:57.909Z,13.70
2023-03-06T17:11:25.150Z,15.00
2023-03-06T17:13:52.263Z,13.98
2023-03-06T17:16:19.050Z,15.55
2023-03-06T17:18:46.371Z,14.30
2023-03-06T17:21:15.772Z,14.38
2023-03-06T17:23:42.964Z,13.43
2023-03-06T17:26:16.069Z,14.23
2023-03-06T17:28:43.071Z,14.52
2023-03-06T17:31:18.569Z,13.38
2023-03-06T17:33:46.517Z,13.45
2023-03-06T17:36:14.627Z,14.60
2023-03-06T17:38:42.458Z,13.93
2023-03-06T17:41:16.141Z,13.15
2023-03-06T17:43:42.941Z,14.27
2023-03-06T17:46:13.417Z,13.00
2023-03-06T17:48:40.678Z,12.32
2023-03-06T17:51:08.439Z,12.65
2023-03-06T17:53:36.016Z,13.48
2023-03-06T17:56:05.140Z,13.45
2023-03-06T17:58:32.269Z,12.98
2023-03-06T18:00:59.307Z,12.15
2023-03-06T18:03:26.614Z,12.25
2023-03-06T18:06:04.269Z,14.20
2023-03-06T18:08:32.159Z,13.68
2023-03-06T18:11:04.402Z,13.60
2023-03-06T18:13:34.955Z,15.20
2023-03-06T18:16:02.484Z,12.75
2023-03-06T18:18:30.088Z,12.80
2023-03-06T18:20:57.173Z,14.90
2023-03-06T18:23:24.045Z,14.02
2023-03-06T18:25:51.205Z,14.55
2023-03-06T18:28:18.089Z,13.57
2023-03-06T18:30:44.953Z,16.00
2023-03-06T18:33:11.739Z,15.38
2023-03-06T18:35:52.772Z,14.52
2023-03-06T18:38:19.570Z,13.75
2023-03-06T18:40:46.861Z,13.80
2023-03-06T18:43:46.106Z,13.73
2023-03-06T18:48:04.271Z,14.07
2023-03-06T18:49:13.865Z,12.00
2023-03-06T18:51:41.727Z,13.60
2023-03-06T18:54:08.503Z,13.52
2023-03-06T18:56:35.569Z,14.05
2023-03-06T18:59:04.413Z,16.08
2023-03-06T19:01:37.721Z,16.27
2023-03-06T19:04:05.033Z,13.75
2023-03-06T19:06:32.003Z,15.85
2023-03-06T19:08:58.983Z,16.50
2023-03-06T19:11:26.912Z,14.77
2023-03-06T19:13:56.323Z,16.20
2023-03-06T19:16:26.049Z,16.80
2023-03-06T19:18:55.810Z,16.42
2023-03-06T19:21:24.991Z,14.88
2023-03-06T19:23:52.375Z,17.88
2023-03-06T19:26:19.747Z,17.35
2023-03-06T19:28:47.872Z,16.48
2023-03-06T19:31:25.161Z,17.60
2023-03-06T19:33:54.558Z,17.60
2023-03-06T19:36:27.138Z,17.48
2023-03-06T19:38:55.825Z,18.25
2023-03-06T19:41:22.923Z,17.30
2023-03-06T19:43:55.802Z,16.60
2023-03-06T19:46:24.230Z,18.58
2023-03-06T19:49:18.308Z,19.90
2023-03-06T19:51:45.669Z,18.15
2023-03-06T19:54:14.374Z,19.05
2023-03-06T19:56:41.613Z,17.80
2023-03-06T19:59:08.929Z,18.50
2023-03-06T20:01:36.001Z,20.30
2023-03-06T20:04:03.366Z,19.02
2023-03-06T20:06:33.831Z,19.30
2023-03-06T20:09:02.127Z,22.40
2023-03-06T20:11:30.061Z,20.33
2023-03-06T20:13:58.961Z,19.90
2023-03-06T20:16:28.056Z,20.02
2023-03-06T20:18:58.479Z,20.42
2023-03-06T20:21:30.588Z,20.20
2023-03-06T20:23:58.328Z,21.60
2023-03-06T20:26:27.293Z,21.67
2023-03-06T20:28:55.108Z,19.58
2023-03-06T20:31:25.683Z,20.83
2023-03-06T20:33:54.060Z,19.38
2023-03-06T20:36:23.872Z,21.30
2023-03-06T20:38:51.426Z,19.67
2023-03-06T20:41:24.843Z,21.05
2023-03-06T20:43:52.178Z,20.95
2023-03-06T20:46:21.085Z,20.25
2023-03-06T20:48:50.681Z,21.33
2023-03-06T20:51:30.269Z,20.25
2023-03-06T20:53:58.493Z,20.00
2023-03-06T20:56:29.380Z,23.67
2023-03-06T20:58:57.704Z,22.10
2023-03-06T21:01:33.627Z,20.17
2023-03-06T21:04:02.145Z,17.50
2023-03-06T21:06:29.907Z,22.23
2023-03-06T21:08:58.448Z,21.00
2023-03-06T21:11:26.303Z,20.85
2023-03-06T21:13:54.134Z,21.48
2023-03-06T21:16:24.504Z,18.90
2023-03-06T21:18:53.633Z,19.60
2023-03-06T21:21:24.166Z,18.08
2023-03-06T21:23:53.465Z,19.02
2023-03-06T21:26:23.027Z,18.65
2023-03-06T21:28:50.173Z,21.17
2023-03-06T21:31:19.281Z,18.75
2023-03-06T21:33:47.592Z,19.23
2023-03-06T21:36:14.893Z,20.83
2023-03-06T21:38:42.015Z,19.08
2023-03-06T21:41:34.173Z,19.95
2023-03-06T21:44:03.750Z,18.42
2023-03-06T21:46:31.202Z,19.60
2023-03-06T21:48:58.452Z,19.55
2023-03-06T21:51:26.734Z,16.15
2023-03-06T21:53:54.203Z,18.92
2023-03-06T21:56:23.982Z,16.58
2023-03-06T21:58:50.977Z,14.18
2023-03-06T22:01:23.104Z,14.43
2023-03-06T22:03:50.570Z,9.00
2023-03-06T22:06:23.272Z,13.32
2023-03-06T22:11:20.377Z,11.43
2023-03-06T22:13:48.372Z,10.25
2023-03-06T22:16:16.440Z,7.18
2023-03-06T22:18:48.808Z,9.20
2023-03-06T22:21:18.266Z,9.45
2023-03-06T22:23:52.045Z,7.38
2023-03-06T22:26:19.867Z,5.97
2023-03-06T22:28:47.198Z,7.35
2023-03-06T22:31:23.929Z,6.22
2023-03-06T22:33:54.782Z,5.95
2023-03-06T22:36:23.517Z,5.32
2023-03-06T22:38:54.510Z,5.47
2023-03-06T22:41:21.666Z,5.25
2023-03-06T22:43:48.697Z,6.20
2023-03-06T22:46:17.949Z,5.72
2023-03-06T22:48:45.412Z,5.47
2023-03-06T22:51:16.084Z,4.53
2023-03-06T22:53:43.451Z,5.10
2023-03-06T22:56:12.688Z,5.07
2023-03-06T22:58:40.338Z,6.00
2023-03-06T23:01:23.590Z,4.63
2023-03-06T23:03:56.307Z,4.65
2023-03-06T23:08:54.085Z,5.07
2023-03-06T23:11:22.015Z,4.32
2023-03-06T23:14:08.139Z,4.20
2023-03-06T23:16:53.937Z,4.60
2023-03-06T23:19:39.456Z,4.30
2023-03-06T23:22:25.138Z,4.90
2023-03-06T23:25:10.765Z,5.00
2023-03-06T23:27:38.173Z,6.20
2023-03-06T23:30:06.505Z,5.45
2023-03-06T23:32:34.196Z,6.22
2023-03-06T23:35:01.519Z,7.22
2023-03-06T23:37:28.535Z,7.75
2023-03-06T23:39:55.764Z,8.05
2023-03-06T23:42:23.231Z,8.05
2023-03-06T23:44:50.104Z,8.25
2023-03-06T23:47:17.321Z,7.95
2023-03-06T23:49:44.871Z,7.75
2023-03-06T23:52:11.922Z,7.55
2023-03-06T23:54:38.922Z,7.43
2023-03-06T23:57:05.952Z,7.70
2023-03-06T23:59:33.054Z,6.63
